A- A+ FrançaisEnglishEspañol中国

Services sur Internet Soldes sur Internet Des idées de cadeaux Météo Météo aéro

La météo à : Autours de vous Tarbes-Lourdes-PyrénéesMarseille Evreux-Fauville Aix-Les Milles

manche à air

La météo aéronautique pour les pilotes, la préparation du vol avec les METAR (METeorological Aerodrome Report, message d'observation des conditions météorologiques pour l'aviation) et Les TAF (Terminal Aerodrome Forecast : message de prévision à court terme des conditions météorologiques pour l'aviation). Et les autres ressources comme les VAC (Visual Approch Chart) et les NOTAM (Notice To Airman) pour préprer les vols.

Aéroport Alta (Norvège) / OACI ENAT/ IATA ALF

L'altitude de l'aéroport Alta est de 3 m = 10 ft. Il est situé à proximité de Alta (Norvège). La météo générale à 5 jours est disponible pour Bukta situé à 1.7 km.

METAR de l'aéroport Alta - ENAT

ENAT 291050Z 08007KT 9999 FEW020 SCT041 BKN070 04/M01 Q0996 RMK WIND 700FT 04010KT

Décodage du METAR de l'aéroport Alta (NO)

METAR émis par ENAT le dimanche 29 septembre 2019 à 10:50 heure TU. Attention ce METAR est obsolète car il a été émis il y a 3 heure et 26 minutes.

La visibilité est de supérieure à 10 km = supérieure à 6.2 sm.

La température est de 4°C = 39 °F et le point rosée est de -1°C = 30 °F . Ce qui correspond à 70% d'humidité relative.

Le QNH est de 996 hPa = 29.41 inHg

Vent de 7 kt = 13 km/h, orienté à 80°.

Nuages : Quelques nuages à 2000 ft = 610 mètres. Nuages épars à 4100 ft = 1250 mètres. Couverture nuageuse fragmentée à 7000 ft = 2130 mètres.

RMK WIND 700FT 04010KT

TAF de l'aéroport Alta - ENAT

ENAT 290800Z 2909/2918 05008KT 9999 BKN040

ENAT 290800Z 2909/2918 05008KT 9999 couverture nuageuse fragmentée à 040

Aéroport à proximité de Alta

Météo générale à 5 jours à Bukta (1.7 km)Aéroport Banak (62 km)Aéroport Hasvik (73 km)Aéroport Hammaerfest (79 km)Aéroport Sorkjosen (95 km)Aéroport Kautokeino (105 km)Aéroport Honningsvag Valan (150 km)

Vue aérienne de l'aéroport Alta

NOTAM de l'aéroport Alta

Les NOTAM sont fournis sans aucune garantie de leur actualité. Le pilote est le seul responsable de la vérification de sa validité avant de l'utiliser opérationnellement pour préparer un vol ou l'utiliser lors de sa navigation.

Pas de NOTAM

Sources des données